sensor_id;sensor_type;location;lat;lon;timestamp;pressure;altitude;pressure_sealevel;temperature;humidity
35649;BME280;21768;48.562;13.414;2023-02-02T00:02:00;97286.66;;;6.07;64.05
35649;BME280;21768;48.562;13.414;2023-02-02T00:04:30;97295.19;;;6.09;63.66
35649;BME280;21768;48.562;13.414;2023-02-02T00:06:56;97288.66;;;6.11;63.81
35649;BME280;21768;48.562;13.414;2023-02-02T00:09:22;97288.66;;;6.11;64.39
35649;BME280;21768;48.562;13.414;2023-02-02T00:11:48;97279.78;;;6.14;64.33
35649;BME280;21768;48.562;13.414;2023-02-02T00:14:16;97274.75;;;6.14;63.83
35649;BME280;21768;48.562;13.414;2023-02-02T00:16:44;97286.88;;;6.20;63.80
35649;BME280;21768;48.562;13.414;2023-02-02T00:21:36;97284.59;;;6.23;63.38
35649;BME280;21768;48.562;13.414;2023-02-02T00:24:03;97272.84;;;6.22;63.20
35649;BME280;21768;48.562;13.414;2023-02-02T00:26:29;97286.59;;;6.27;63.51
35649;BME280;21768;48.562;13.414;2023-02-02T00:28:55;97272.34;;;6.26;63.32
35649;BME280;21768;48.562;13.414;2023-02-02T00:31:20;97279.34;;;6.30;62.78
35649;BME280;21768;48.562;13.414;2023-02-02T00:33:47;97267.44;;;6.28;63.20
35649;BME280;21768;48.562;13.414;2023-02-02T00:36:13;97261.56;;;6.27;63.44
35649;BME280;21768;48.562;13.414;2023-02-02T00:38:38;97284.22;;;6.29;63.12
35649;BME280;21768;48.562;13.414;2023-02-02T00:41:04;97259.56;;;6.23;63.46
35649;BME280;21768;48.562;13.414;2023-02-02T00:43:30;97246.28;;;6.24;63.66
35649;BME280;21768;48.562;13.414;2023-02-02T00:45:55;97268.81;;;6.24;63.66
35649;BME280;21768;48.562;13.414;2023-02-02T00:48:21;97257.81;;;6.22;63.52
35649;BME280;21768;48.562;13.414;2023-02-02T00:50:46;97249.78;;;6.26;63.87
35649;BME280;21768;48.562;13.414;2023-02-02T00:53:12;97241.75;;;6.30;63.26
35649;BME280;21768;48.562;13.414;2023-02-02T00:55:37;97255.78;;;6.28;63.22
35649;BME280;21768;48.562;13.414;2023-02-02T00:58:03;97255.03;;;6.29;62.84
35649;BME280;21768;48.562;13.414;2023-02-02T01:00:28;97247.00;;;6.33;62.94
35649;BME280;21768;48.562;13.414;2023-02-02T01:02:53;97261.41;;;6.36;62.59
35649;BME280;21768;48.562;13.414;2023-02-02T01:05:20;97249.00;;;6.37;62.10
35649;BME280;21768;48.562;13.414;2023-02-02T01:07:46;97254.25;;;6.40;62.14
35649;BME280;21768;48.562;13.414;2023-02-02T01:10:17;97235.97;;;6.41;61.72
35649;BME280;21768;48.562;13.414;2023-02-02T01:12:43;97244.25;;;6.40;61.87
35649;BME280;21768;48.562;13.414;2023-02-02T01:15:09;97261.78;;;6.40;62.26
35649;BME280;21768;48.562;13.414;2023-02-02T01:17:35;97271.25;;;6.44;61.77
35649;BME280;21768;48.562;13.414;2023-02-02T01:20:02;97281.53;;;6.47;61.70
35649;BME280;21768;48.562;13.414;2023-02-02T01:22:28;97257.97;;;6.45;62.15
35649;BME280;21768;48.562;13.414;2023-02-02T01:24:53;97269.00;;;6.47;61.90
35649;BME280;21768;48.562;13.414;2023-02-02T01:27:18;97277.38;;;6.48;61.71
35649;BME280;21768;48.562;13.414;2023-02-02T01:29:44;97271.25;;;6.44;61.61
35649;BME280;21768;48.562;13.414;2023-02-02T01:32:09;97286.28;;;6.44;62.33
35649;BME280;21768;48.562;13.414;2023-02-02T01:34:35;97281.53;;;6.47;62.88
35649;BME280;21768;48.562;13.414;2023-02-02T01:37:04;97273.38;;;6.50;62.76
35649;BME280;21768;48.562;13.414;2023-02-02T01:39:30;97286.53;;;6.47;62.91
35649;BME280;21768;48.562;13.414;2023-02-02T01:41:55;97271.19;;;6.43;62.82
35649;BME280;21768;48.562;13.414;2023-02-02T01:45:01;97286.09;;;6.41;63.53
35649;BME280;21768;48.562;13.414;2023-02-02T01:47:31;97299.56;;;6.43;63.73
35649;BME280;21768;48.562;13.414;2023-02-02T01:49:57;97298.63;;;6.41;64.35
35649;BME280;21768;48.562;13.414;2023-02-02T01:52:25;97321.16;;;6.41;64.44
35649;BME280;21768;48.562;13.414;2023-02-02T01:55:08;97356.25;;;6.41;64.92
35649;BME280;21768;48.562;13.414;2023-02-02T01:57:38;97362.63;;;6.38;65.03
35649;BME280;21768;48.562;13.414;2023-02-02T02:00:09;97386.97;;;6.19;65.59
35649;BME280;21768;48.562;13.414;2023-02-02T02:02:35;97401.50;;;5.92;66.31
35649;BME280;21768;48.562;13.414;2023-02-02T02:05:03;97410.69;;;5.63;66.68
35649;BME280;21768;48.562;13.414;2023-02-02T02:07:29;97413.38;;;5.35;66.89
35649;BME280;21768;48.562;13.414;2023-02-02T02:09:55;97429.25;;;5.07;67.29
35649;BME280;21768;48.562;13.414;2023-02-02T02:12:20;97427.56;;;4.87;67.95
35649;BME280;21768;48.562;13.414;2023-02-02T02:14:48;97438.69;;;4.72;68.03
35649;BME280;21768;48.562;13.414;2023-02-02T02:20:28;97440.91;;;4.40;68.72
35649;BME280;21768;48.562;13.414;2023-02-02T02:34:54;97452.22;;;3.63;70.57
35649;BME280;21768;48.562;13.414;2023-02-02T02:40:05;97447.84;;;3.52;71.18
35649;BME280;21768;48.562;13.414;2023-02-02T02:42:35;97440.94;;;3.49;71.20
35649;BME280;21768;48.562;13.414;2023-02-02T02:45:03;97439.19;;;3.48;71.23
35649;BME280;21768;48.562;13.414;2023-02-02T02:47:31;97440.41;;;3.43;71.58
35649;BME280;21768;48.562;13.414;2023-02-02T02:49:56;97433.66;;;3.42;71.76
35649;BME280;21768;48.562;13.414;2023-02-02T02:52:21;97431.91;;;3.41;71.92
35649;BME280;21768;48.562;13.414;2023-02-02T02:54:54;97434.13;;;3.38;72.05
35649;BME280;21768;48.562;13.414;2023-02-02T03:00:23;97426.91;;;3.41;72.40
35649;BME280;21768;48.562;13.414;2023-02-02T03:08:09;97424.72;;;3.44;72.58
35649;BME280;21768;48.562;13.414;2023-02-02T03:10:37;97426.31;;;3.44;72.60
35649;BME280;21768;48.562;13.414;2023-02-02T03:13:09;97424.56;;;3.42;72.63
35649;BME280;21768;48.562;13.414;2023-02-02T03:15:39;97428.69;;;3.42;72.86
35649;BME280;21768;48.562;13.414;2023-02-02T03:18:05;97430.00;;;3.38;72.89
35649;BME280;21768;48.562;13.414;2023-02-02T03:20:30;97426.34;;;3.35;73.10
35649;BME280;21768;48.562;13.414;2023-02-02T03:22:56;97430.75;;;3.29;73.79
35649;BME280;21768;48.562;13.414;2023-02-02T03:25:21;97435.16;;;3.23;73.62
35649;BME280;21768;48.562;13.414;2023-02-02T03:27:48;97444.56;;;3.25;73.53
35649;BME280;21768;48.562;13.414;2023-02-02T03:30:13;97446.31;;;3.26;73.91
35649;BME280;21768;48.562;13.414;2023-02-02T03:32:40;97448.22;;;3.29;73.46
35649;BME280;21768;48.562;13.414;2023-02-02T03:35:06;97452.88;;;3.34;73.36
35649;BME280;21768;48.562;13.414;2023-02-02T03:37:32;97453.78;;;3.35;73.37
35649;BME280;21768;48.562;13.414;2023-02-02T03:39:57;97453.47;;;3.32;73.95
35649;BME280;21768;48.562;13.414;2023-02-02T03:42:22;97455.41;;;3.26;73.71
35649;BME280;21768;48.562;13.414;2023-02-02T03:44:48;97448.94;;;3.28;73.82
35649;BME280;21768;48.562;13.414;2023-02-02T03:47:13;97452.00;;;3.34;73.67
35649;BME280;21768;48.562;13.414;2023-02-02T03:49:39;97457.44;;;3.30;73.88
35649;BME280;21768;48.562;13.414;2023-02-02T03:52:04;97452.75;;;3.33;73.56
35649;BME280;21768;48.562;13.414;2023-02-02T03:54:30;97447.16;;;3.35;73.68
35649;BME280;21768;48.562;13.414;2023-02-02T03:56:55;97445.84;;;3.39;73.51
35649;BME280;21768;48.562;13.414;2023-02-02T03:59:21;97452.88;;;3.43;73.57
35649;BME280;21768;48.562;13.414;2023-02-02T04:01:46;97452.00;;;3.42;73.62
35649;BME280;21768;48.562;13.414;2023-02-02T04:04:12;97463.44;;;3.40;73.50
35649;BME280;21768;48.562;13.414;2023-02-02T04:06:37;97459.03;;;3.38;73.73
35649;BME280;21768;48.562;13.414;2023-02-02T04:09:03;97464.47;;;3.34;73.77
35649;BME280;21768;48.562;13.414;2023-02-02T04:11:28;97462.44;;;3.30;73.91
35649;BME280;21768;48.562;13.414;2023-02-02T04:13:54;97471.66;;;3.31;73.91
35649;BME280;21768;48.562;13.414;2023-02-02T04:16:19;97470.66;;;3.29;74.02
35649;BME280;21768;48.562;13.414;2023-02-02T04:18:45;97484.72;;;3.28;73.98
35649;BME280;21768;48.562;13.414;2023-02-02T04:21:10;97488.09;;;3.29;73.84
35649;BME280;21768;48.562;13.414;2023-02-02T04:23:36;97492.06;;;3.27;73.91
35649;BME280;21768;48.562;13.414;2023-02-02T04:26:02;97493.66;;;3.26;74.02
35649;BME280;21768;48.562;13.414;2023-02-02T04:28:27;97503.22;;;3.22;74.17
35649;BME280;21768;48.562;13.414;2023-02-02T04:30:54;97508.97;;;3.21;74.30
35649;BME280;21768;48.562;13.414;2023-02-02T04:33:21;97509.69;;;3.20;74.21
35649;BME280;21768;48.562;13.414;2023-02-02T04:35:47;97513.78;;;3.19;74.10
35649;BME280;21768;48.562;13.414;2023-02-02T04:38:13;97512.19;;;3.20;74.36
35649;BME280;21768;48.562;13.414;2023-02-02T04:40:40;97508.66;;;3.18;74.48
35649;BME280;21768;48.562;13.414;2023-02-02T04:43:06;97506.91;;;3.17;74.49
35649;BME280;21768;48.562;13.414;2023-02-02T04:45:31;97504.25;;;3.15;74.77
35649;BME280;21768;48.562;13.414;2023-02-02T04:47:57;97502.38;;;3.13;74.67
35649;BME280;21768;48.562;13.414;2023-02-02T04:50:22;97500.91;;;3.15;74.63
35649;BME280;21768;48.562;13.414;2023-02-02T04:52:47;97505.59;;;3.12;74.76
35649;BME280;21768;48.562;13.414;2023-02-02T04:55:13;97509.84;;;3.13;75.06
35649;BME280;21768;48.562;13.414;2023-02-02T04:57:38;97512.34;;;3.13;75.19
35649;BME280;21768;48.562;13.414;2023-02-02T05:00:04;97519.38;;;3.08;75.08
35649;BME280;21768;48.562;13.414;2023-02-02T05:02:30;97516.72;;;3.06;75.15
35649;BME280;21768;48.562;13.414;2023-02-02T05:04:59;97511.59;;;3.05;75.16
35649;BME280;21768;48.562;13.414;2023-02-02T05:07:24;97505.00;;;3.05;75.17
35649;BME280;21768;48.562;13.414;2023-02-02T05:09:49;97514.97;;;3.05;75.55
35649;BME280;21768;48.562;13.414;2023-02-02T05:12:15;97518.50;;;3.07;75.49
35649;BME280;21768;48.562;13.414;2023-02-02T05:14:40;97513.50;;;3.07;75.46
35649;BME280;21768;48.562;13.414;2023-02-02T05:17:05;97514.53;;;3.10;75.33
35649;BME280;21768;48.562;13.414;2023-02-02T05:19:31;97519.06;;;3.14;75.20
35649;BME280;21768;48.562;13.414;2023-02-02T05:21:56;97521.72;;;3.15;75.20
35649;BME280;21768;48.562;13.414;2023-02-02T05:24:21;97521.13;;;3.18;75.34
35649;BME280;21768;48.562;13.414;2023-02-02T05:26:47;97524.66;;;3.20;75.38
35649;BME280;21768;48.562;13.414;2023-02-02T05:29:12;97519.97;;;3.14;75.39
35649;BME280;21768;48.562;13.414;2023-02-02T05:31:37;97532.56;;;3.16;75.45
35649;BME280;21768;48.562;13.414;2023-02-02T05:34:03;97538.56;;;3.18;75.38
35649;BME280;21768;48.562;13.414;2023-02-02T05:36:31;97530.22;;;3.17;75.54
35649;BME280;21768;48.562;13.414;2023-02-02T05:38:56;97524.34;;;3.17;75.27
35649;BME280;21768;48.562;13.414;2023-02-02T05:41:22;97528.75;;;3.19;75.35
35649;BME280;21768;48.562;13.414;2023-02-02T05:43:47;97525.53;;;3.12;75.69
35649;BME280;21768;48.562;13.414;2023-02-02T05:46:13;97524.22;;;3.06;75.90
35649;BME280;21768;48.562;13.414;2023-02-02T05:48:38;97536.38;;;3.03;75.76
35649;BME280;21768;48.562;13.414;2023-02-02T05:51:08;97532.25;;;3.04;75.90
35649;BME280;21768;48.562;13.414;2023-02-02T05:53:34;97533.44;;;3.07;75.66
35649;BME280;21768;48.562;13.414;2023-02-02T05:56:00;97544.28;;;3.08;75.74
35649;BME280;21768;48.562;13.414;2023-02-02T05:58:25;97553.66;;;3.11;75.63
35649;BME280;21768;48.562;13.414;2023-02-02T06:00:52;97562.47;;;3.16;75.74
35649;BME280;21768;48.562;13.414;2023-02-02T06:03:18;97559.25;;;3.17;75.70
35649;BME280;21768;48.562;13.414;2023-02-02T06:05:43;97565.13;;;3.17;75.49
35649;BME280;21768;48.562;13.414;2023-02-02T06:08:08;97566.00;;;3.18;75.36
35649;BME280;21768;48.562;13.414;2023-02-02T06:10:34;97582.72;;;3.19;75.39
35649;BME280;21768;48.562;13.414;2023-02-02T06:12:59;97586.97;;;3.20;75.52
35649;BME280;21768;48.562;13.414;2023-02-02T06:15:25;97595.91;;;3.18;75.67
35649;BME280;21768;48.562;13.414;2023-02-02T06:17:51;97601.47;;;3.15;75.59
35649;BME280;21768;48.562;13.414;2023-02-02T06:20:17;97605.88;;;3.18;75.73
35649;BME280;21768;48.562;13.414;2023-02-02T06:22:42;97612.88;;;3.22;75.49
35649;BME280;21768;48.562;13.414;2023-02-02T06:25:08;97620.50;;;3.23;75.45
35649;BME280;21768;48.562;13.414;2023-02-02T06:27:34;97612.03;;;3.21;75.50
35649;BME280;21768;48.562;13.414;2023-02-02T06:29:59;97601.03;;;3.19;75.47
35649;BME280;21768;48.562;13.414;2023-02-02T06:32:27;97599.69;;;3.23;75.47
35649;BME280;21768;48.562;13.414;2023-02-02T06:34:53;97590.91;;;3.18;75.86
35649;BME280;21768;48.562;13.414;2023-02-02T06:37:18;97601.19;;;3.21;75.37
35649;BME280;21768;48.562;13.414;2023-02-02T06:39:43;97604.41;;;3.20;75.58
35649;BME280;21768;48.562;13.414;2023-02-02T06:42:09;97597.66;;;3.19;75.65
35649;BME280;21768;48.562;13.414;2023-02-02T06:44:34;97609.06;;;3.25;75.58
35649;BME280;21768;48.562;13.414;2023-02-02T06:46:59;97613.34;;;3.35;75.41
35649;BME280;21768;48.562;13.414;2023-02-02T06:49:25;97610.41;;;3.39;75.24
35649;BME280;21768;48.562;13.414;2023-02-02T06:51:50;97607.31;;;3.33;75.10
35649;BME280;21768;48.562;13.414;2023-02-02T06:54:15;97616.13;;;3.29;75.08
35649;BME280;21768;48.562;13.414;2023-02-02T06:56:41;97618.31;;;3.26;75.19
35649;BME280;21768;48.562;13.414;2023-02-02T06:59:07;97613.75;;;3.22;75.27
35649;BME280;21768;48.562;13.414;2023-02-02T07:01:32;97621.56;;;3.17;75.37
35649;BME280;21768;48.562;13.414;2023-02-02T07:03:57;97626.69;;;3.18;75.51
35649;BME280;21768;48.562;13.414;2023-02-02T07:06:25;97631.38;;;3.24;75.69
35649;BME280;21768;48.562;13.414;2023-02-02T07:08:52;97636.66;;;3.27;75.51
35649;BME280;21768;48.562;13.414;2023-02-02T07:11:17;97628.44;;;3.28;75.48
35649;BME280;21768;48.562;13.414;2023-02-02T07:13:44;97632.25;;;3.33;75.60
35649;BME280;21768;48.562;13.414;2023-02-02T07:16:10;97634.91;;;3.34;75.56
35649;BME280;21768;48.562;13.414;2023-02-02T07:18:37;97640.19;;;3.37;75.31
35649;BME280;21768;48.562;13.414;2023-02-02T07:21:04;97634.31;;;3.37;75.17
35649;BME280;21768;48.562;13.414;2023-02-02T07:23:31;97634.31;;;3.37;75.32
35649;BME280;21768;48.562;13.414;2023-02-02T07:26:06;97628.44;;;3.36;75.23
35649;BME280;21768;48.562;13.414;2023-02-02T07:28:32;97637.53;;;3.36;75.16
35649;BME280;21768;48.562;13.414;2023-02-02T07:30:58;97648.69;;;3.39;75.17
35649;BME280;21768;48.562;13.414;2023-02-02T07:33:23;97644.00;;;3.42;75.32
35649;BME280;21768;48.562;13.414;2023-02-02T07:35:49;97654.13;;;3.44;75.07
35649;BME280;21768;48.562;13.414;2023-02-02T07:38:14;97654.38;;;3.47;75.14
35649;BME280;21768;48.562;13.414;2023-02-02T07:40:39;97655.41;;;3.49;74.75
35649;BME280;21768;48.562;13.414;2023-02-02T07:43:05;97654.97;;;3.53;75.06
35649;BME280;21768;48.562;13.414;2023-02-02T07:45:30;97651.00;;;3.47;74.85
35649;BME280;21768;48.562;13.414;2023-02-02T07:47:59;97646.66;;;3.44;75.01
35649;BME280;21768;48.562;13.414;2023-02-02T07:50:26;97650.16;;;3.46;74.84
35649;BME280;21768;48.562;13.414;2023-02-02T07:52:52;97651.75;;;3.54;75.03
35649;BME280;21768;48.562;13.414;2023-02-02T07:55:17;97660.69;;;3.52;74.75
35649;BME280;21768;48.562;13.414;2023-02-02T07:57:43;97663.03;;;3.51;74.84
35649;BME280;21768;48.562;13.414;2023-02-02T08:00:09;97655.72;;;3.52;74.86
35649;BME280;21768;48.562;13.414;2023-02-02T08:02:34;97658.22;;;3.52;74.84
35649;BME280;21768;48.562;13.414;2023-02-02T08:05:00;97659.66;;;3.50;74.65
35649;BME280;21768;48.562;13.414;2023-02-02T08:07:25;97663.63;;;3.48;74.74
35649;BME280;21768;48.562;13.414;2023-02-02T08:09:51;97661.88;;;3.47;74.73
35649;BME280;21768;48.562;13.414;2023-02-02T08:12:17;97664.97;;;3.45;74.77
35649;BME280;21768;48.562;13.414;2023-02-02T08:14:43;97665.09;;;3.55;74.78
35649;BME280;21768;48.562;13.414;2023-02-02T08:17:08;97670.53;;;3.59;74.76
35649;BME280;21768;48.562;13.414;2023-02-02T08:19:33;97669.50;;;3.57;74.63
35649;BME280;21768;48.562;13.414;2023-02-02T08:21:59;97673.03;;;3.59;74.80
35649;BME280;21768;48.562;13.414;2023-02-02T08:24:24;97680.97;;;3.64;74.64
35649;BME280;21768;48.562;13.414;2023-02-02T08:26:49;97674.94;;;3.70;74.60
35649;BME280;21768;48.562;13.414;2023-02-02T08:29:15;97668.44;;;3.72;74.38
35649;BME280;21768;48.562;13.414;2023-02-02T08:31:42;97665.41;;;3.66;74.23
35649;BME280;21768;48.562;13.414;2023-02-02T08:34:09;97665.41;;;3.58;74.67
35649;BME280;21768;48.562;13.414;2023-02-02T08:36:34;97671.28;;;3.58;74.81
35649;BME280;21768;48.562;13.414;2023-02-02T08:39:03;97672.72;;;3.56;74.78
35649;BME280;21768;48.562;13.414;2023-02-02T08:41:28;97683.88;;;3.51;74.79
35649;BME280;21768;48.562;13.414;2023-02-02T08:43:54;97678.88;;;3.51;74.77
35649;BME280;21768;48.562;13.414;2023-02-02T08:46:20;97683.31;;;3.45;74.78
35649;BME280;21768;48.562;13.414;2023-02-02T08:48:46;97682.00;;;3.40;74.93
35649;BME280;21768;48.562;13.414;2023-02-02T08:51:13;97682.00;;;3.40;74.79
35649;BME280;21768;48.562;13.414;2023-02-02T08:53:40;97684.19;;;3.37;74.90
35649;BME280;21768;48.562;13.414;2023-02-02T08:56:13;97681.53;;;3.35;75.02
35649;BME280;21768;48.562;13.414;2023-02-02T08:58:47;97678.00;;;3.33;74.88
35649;BME280;21768;48.562;13.414;2023-02-02T09:01:17;97676.84;;;3.30;74.83
35649;BME280;21768;48.562;13.414;2023-02-02T09:03:43;97686.06;;;3.31;75.04
35649;BME280;21768;48.562;13.414;2023-02-02T09:06:11;97685.66;;;3.35;74.99
35649;BME280;21768;48.562;13.414;2023-02-02T09:08:38;97688.00;;;3.33;74.92
35649;BME280;21768;48.562;13.414;2023-02-02T09:11:05;97686.50;;;3.27;75.29
35649;BME280;21768;48.562;13.414;2023-02-02T09:13:31;97694.00;;;3.27;75.18
35649;BME280;21768;48.562;13.414;2023-02-02T09:16:01;97686.81;;;3.30;75.04
35649;BME280;21768;48.562;13.414;2023-02-02T09:18:27;97690.91;;;3.29;75.00
35649;BME280;21768;48.562;13.414;2023-02-02T09:20:52;97700.31;;;3.32;75.27
35649;BME280;21768;48.562;13.414;2023-02-02T09:23:17;97692.25;;;3.34;75.19
35649;BME280;21768;48.562;13.414;2023-02-02T09:25:43;97694.44;;;3.40;75.39
35649;BME280;21768;48.562;13.414;2023-02-02T09:28:08;97698.53;;;3.48;75.23
35649;BME280;21768;48.562;13.414;2023-02-02T09:30:34;97694.75;;;3.60;75.07
35649;BME280;21768;48.562;13.414;2023-02-02T09:32:59;97706.06;;;3.65;75.01
35649;BME280;21768;48.562;13.414;2023-02-02T09:35:24;97707.50;;;3.72;74.71
35649;BME280;21768;48.562;13.414;2023-02-02T09:37:50;97704.72;;;3.78;74.70
35649;BME280;21768;48.562;13.414;2023-02-02T09:40:17;97710.44;;;3.85;74.73
35649;BME280;21768;48.562;13.414;2023-02-02T09:42:57;97706.19;;;3.93;74.44
35649;BME280;21768;48.562;13.414;2023-02-02T09:45:46;97708.81;;;3.94;74.32
35649;BME280;21768;48.562;13.414;2023-02-02T09:50:53;97712.31;;;4.05;74.07
35649;BME280;21768;48.562;13.414;2023-02-02T09:53:39;97720.09;;;4.08;74.09
35649;BME280;21768;48.562;13.414;2023-02-02T09:56:12;97715.84;;;4.07;73.93
35649;BME280;21768;48.562;13.414;2023-02-02T09:59:00;97720.84;;;4.07;73.93
35649;BME280;21768;48.562;13.414;2023-02-02T10:01:33;97714.66;;;4.12;73.61
35649;BME280;21768;48.562;13.414;2023-02-02T10:04:26;97721.13;;;4.10;73.49
35649;BME280;21768;48.562;13.414;2023-02-02T10:06:56;97714.94;;;4.15;73.50
35649;BME280;21768;48.562;13.414;2023-02-02T10:09:46;97712.44;;;4.15;73.33
35649;BME280;21768;48.562;13.414;2023-02-02T10:12:24;97716.28;;;4.20;73.26
35649;BME280;21768;48.562;13.414;2023-02-02T10:14:56;97715.06;;;4.25;73.10
35649;BME280;21768;48.562;13.414;2023-02-02T10:17:38;97727.84;;;4.28;73.40
35649;BME280;21768;48.562;13.414;2023-02-02T10:22:45;97723.41;;;4.34;73.02
35649;BME280;21768;48.562;13.414;2023-02-02T10:25:13;97736.66;;;4.33;73.12
35649;BME280;21768;48.562;13.414;2023-02-02T10:27:46;97740.16;;;4.35;73.01
35649;BME280;21768;48.562;13.414;2023-02-02T10:30:24;97736.94;;;4.36;72.85
35649;BME280;21768;48.562;13.414;2023-02-02T10:33:05;97743.97;;;4.40;73.03
35649;BME280;21768;48.562;13.414;2023-02-02T10:35:51;97736.50;;;4.40;72.76
35649;BME280;21768;48.562;13.414;2023-02-02T10:41:45;97730.28;;;4.45;72.52
35649;BME280;21768;48.562;13.414;2023-02-02T10:44:27;97722.63;;;4.53;72.29
35649;BME280;21768;48.562;13.414;2023-02-02T10:46:56;97725.69;;;4.59;72.27
35649;BME280;21768;48.562;13.414;2023-02-02T10:49:30;97724.81;;;4.58;72.04
35649;BME280;21768;48.562;13.414;2023-02-02T10:52:21;97725.53;;;4.66;72.02
35649;BME280;21768;48.562;13.414;2023-02-02T10:55:02;97728.03;;;4.66;71.79
35649;BME280;21768;48.562;13.414;2023-02-02T10:57:50;97730.09;;;4.70;71.77
35649;BME280;21768;48.562;13.414;2023-02-02T11:03:01;97723.19;;;4.59;71.67
35649;BME280;21768;48.562;13.414;2023-02-02T11:05:29;97712.19;;;4.57;71.58
35649;BME280;21768;48.562;13.414;2023-02-02T11:08:16;97717.59;;;4.61;71.49
35649;BME280;21768;48.562;13.414;2023-02-02T11:10:44;97716.13;;;4.63;71.49
35649;BME280;21768;48.562;13.414;2023-02-02T11:13:15;97713.34;;;4.60;71.50
35649;BME280;21768;48.562;13.414;2023-02-02T11:15:41;97710.84;;;4.60;71.64
35649;BME280;21768;48.562;13.414;2023-02-02T11:20:49;97704.81;;;4.67;71.44
35649;BME280;21768;48.562;13.414;2023-02-02T11:23:19;97705.81;;;4.69;71.26
35649;BME280;21768;48.562;13.414;2023-02-02T11:25:45;97702.69;;;4.71;71.27
35649;BME280;21768;48.562;13.414;2023-02-02T11:28:23;97704.59;;;4.74;71.21
35649;BME280;21768;48.562;13.414;2023-02-02T11:30:50;97706.09;;;4.72;71.07
35649;BME280;21768;48.562;13.414;2023-02-02T11:33:28;97710.94;;;4.70;71.29
35649;BME280;21768;48.562;13.414;2023-02-02T11:36:02;97705.34;;;4.73;71.09
35649;BME280;21768;48.562;13.414;2023-02-02T11:38:29;97708.59;;;4.72;71.21
35649;BME280;21768;48.562;13.414;2023-02-02T11:41:03;97708.59;;;4.72;70.99
35649;BME280;21768;48.562;13.414;2023-02-02T11:43:32;97703.72;;;4.73;71.06
35649;BME280;21768;48.562;13.414;2023-02-02T11:48:31;97705.09;;;4.70;71.17
35649;BME280;21768;48.562;13.414;2023-02-02T11:50:59;97707.31;;;4.67;71.11
35649;BME280;21768;48.562;13.414;2023-02-02T11:55:54;97709.81;;;4.67;70.97
35649;BME280;21768;48.562;13.414;2023-02-02T11:58:28;97703.03;;;4.66;71.17
35649;BME280;21768;48.562;13.414;2023-02-02T12:01:01;97710.25;;;4.63;70.57
35649;BME280;21768;48.562;13.414;2023-02-02T12:03:36;97707.47;;;4.60;70.96
35649;BME280;21768;48.562;13.414;2023-02-02T12:06:20;97713.19;;;4.59;70.96
35649;BME280;21768;48.562;13.414;2023-02-02T12:08:45;97711.28;;;4.65;70.94
35649;BME280;21768;48.562;13.414;2023-02-02T12:11:31;97712.91;;;4.64;70.82
35649;BME280;21768;48.562;13.414;2023-02-02T12:30:42;97694.06;;;4.68;70.77
35649;BME280;21768;48.562;13.414;2023-02-02T12:44:26;97701.81;;;4.71;70.51
35649;BME280;21768;48.562;13.414;2023-02-02T12:55:39;97701.56;;;4.68;70.70
35649;BME280;21768;48.562;13.414;2023-02-02T13:03:57;97710.53;;;4.66;70.61
35649;BME280;21768;48.562;13.414;2023-02-02T13:11:58;97711.56;;;4.68;70.69
35649;BME280;21768;48.562;13.414;2023-02-02T13:14:49;97714.81;;;4.67;70.70
35649;BME280;21768;48.562;13.414;2023-02-02T13:17:32;97711.56;;;4.68;70.57
35649;BME280;21768;48.562;13.414;2023-02-02T13:20:06;97712.63;;;4.61;70.46
35649;BME280;21768;48.562;13.414;2023-02-02T13:22:39;97711.72;;;4.61;70.62
35649;BME280;21768;48.562;13.414;2023-02-02T13:25:13;97709.97;;;4.60;70.78
35649;BME280;21768;48.562;13.414;2023-02-02T13:27:42;97713.94;;;4.58;70.62
35649;BME280;21768;48.562;13.414;2023-02-02T13:30:27;97723.19;;;4.59;70.80
35649;BME280;21768;48.562;13.414;2023-02-02T13:32:58;97713.38;;;4.52;70.44
35649;BME280;21768;48.562;13.414;2023-02-02T13:35:49;97716.88;;;4.54;70.69
35649;BME280;21768;48.562;13.414;2023-02-02T13:38:23;97725.41;;;4.56;70.75
35649;BME280;21768;48.562;13.414;2023-02-02T13:40:50;97718.66;;;4.55;70.59
35649;BME280;21768;48.562;13.414;2023-02-02T14:00:43;97737.78;;;4.45;70.84
35649;BME280;21768;48.562;13.414;2023-02-02T14:03:42;97742.31;;;4.50;70.78
35649;BME280;21768;48.562;13.414;2023-02-02T14:08:43;97743.06;;;4.49;70.58
35649;BME280;21768;48.562;13.414;2023-02-02T14:11:16;97750.16;;;4.44;70.68
35649;BME280;21768;48.562;13.414;2023-02-02T14:13:45;97747.34;;;4.41;71.04
35649;BME280;21768;48.562;13.414;2023-02-02T14:19:03;97753.09;;;4.40;71.18
35649;BME280;21768;48.562;13.414;2023-02-02T14:24:36;97759.69;;;4.39;71.27
35649;BME280;21768;48.562;13.414;2023-02-02T14:26:55;97762.50;;;4.42;71.21
35649;BME280;21768;48.562;13.414;2023-02-02T14:31:59;97763.38;;;4.34;71.21
35649;BME280;21768;48.562;13.414;2023-02-02T14:34:29;97775.72;;;4.33;71.29
35649;BME280;21768;48.562;13.414;2023-02-02T14:39:30;97782.78;;;4.37;71.25
35649;BME280;21768;48.562;13.414;2023-02-02T14:42:22;97789.22;;;4.35;71.37
35649;BME280;21768;48.562;13.414;2023-02-02T14:50:26;97799.53;;;4.38;71.38
35649;BME280;21768;48.562;13.414;2023-02-02T15:00:57;97809.81;;;4.32;71.55
35649;BME280;21768;48.562;13.414;2023-02-02T15:06:11;97813.47;;;4.27;71.33
35649;BME280;21768;48.562;13.414;2023-02-02T15:08:37;97812.44;;;4.25;71.49
35649;BME280;21768;48.562;13.414;2023-02-02T15:11:04;97822.44;;;4.25;71.61
35649;BME280;21768;48.562;13.414;2023-02-02T15:13:54;97822.72;;;4.28;71.59
35649;BME280;21768;48.562;13.414;2023-02-02T15:16:25;97826.56;;;4.33;71.50
35649;BME280;21768;48.562;13.414;2023-02-02T15:19:07;97823.16;;;4.33;71.47
35649;BME280;21768;48.562;13.414;2023-02-02T15:21:38;97828.31;;;4.26;71.28
35649;BME280;21768;48.562;13.414;2023-02-02T15:24:12;97834.22;;;4.18;71.46
35649;BME280;21768;48.562;13.414;2023-02-02T15:26:41;97828.34;;;4.17;71.56
35649;BME280;21768;48.562;13.414;2023-02-02T15:29:15;97834.78;;;4.15;71.68
35649;BME280;21768;48.562;13.414;2023-02-02T15:31:47;97827.75;;;4.11;71.58